createdAt,value
2023-04-29T00:01:21.402Z,95720.88
2023-04-29T00:03:51.759Z,95712.88
2023-04-29T00:06:21.903Z,95712.09
2023-04-29T00:08:53.581Z,95720.13
2023-04-29T00:11:22.903Z,95720.97
2023-04-29T00:13:52.072Z,95714.13
2023-04-29T00:16:21.419Z,95722.44
2023-04-29T00:18:48.215Z,95710.84
2023-04-29T00:21:15.026Z,95682.47
2023-04-29T00:23:41.818Z,95711.88
2023-04-29T00:26:08.685Z,95700.88
2023-04-29T00:28:38.207Z,95681.97
2023-04-29T00:31:07.771Z,95699.50
2023-04-29T00:33:40.993Z,95700.13
2023-04-29T00:36:12.737Z,95695.00
2023-04-29T00:38:42.586Z,95715.25
2023-04-29T00:41:09.471Z,95698.38
2023-04-29T00:43:38.594Z,95739.50
2023-04-29T00:46:05.639Z,95709.53
2023-04-29T00:48:33.804Z,95693.91
2023-04-29T00:51:06.059Z,95710.25
2023-04-29T00:53:36.377Z,95696.69
2023-04-29T00:56:03.718Z,95687.97
2023-04-29T00:58:36.471Z,95681.66
2023-04-29T01:01:05.864Z,95691.06
2023-04-29T01:03:35.067Z,95697.66
2023-04-29T01:06:44.515Z,95699.09
2023-04-29T01:09:29.098Z,95703.97
2023-04-29T01:12:11.846Z,95693.09
2023-04-29T01:14:46.107Z,95703.81
2023-04-29T01:17:22.212Z,95699.03
2023-04-29T01:19:52.963Z,95675.50
2023-04-29T01:22:22.211Z,95640.63
2023-04-29T01:24:49.885Z,95681.09
2023-04-29T01:27:42.258Z,95692.81
2023-04-29T01:30:22.368Z,95692.06
2023-04-29T01:33:07.015Z,95693.63
2023-04-29T01:35:39.756Z,95684.38
2023-04-29T01:38:16.526Z,95698.75
2023-04-29T01:40:56.974Z,95692.91
2023-04-29T01:43:34.100Z,95695.25
2023-04-29T01:46:16.591Z,95699.50
2023-04-29T01:48:43.780Z,95693.19
2023-04-29T01:51:13.322Z,95704.69
2023-04-29T01:53:49.439Z,95690.41
2023-04-29T01:56:20.538Z,95685.84
2023-04-29T01:58:59.387Z,95690.53
2023-04-29T02:01:46.440Z,95703.50
2023-04-29T02:04:15.577Z,95692.06
2023-04-29T02:06:47.267Z,95702.28
2023-04-29T02:09:21.149Z,95699.50
2023-04-29T02:11:58.087Z,95698.22
2023-04-29T02:14:24.854Z,95690.28
2023-04-29T02:16:51.784Z,95697.59
2023-04-29T02:19:23.950Z,95696.13
2023-04-29T02:21:55.435Z,95704.06
2023-04-29T02:24:23.302Z,95691.25
2023-04-29T02:26:50.094Z,95699.97
2023-04-29T02:29:26.778Z,95707.94
2023-04-29T02:31:57.122Z,95697.25
2023-04-29T02:34:24.438Z,95695.78
2023-04-29T02:36:53.723Z,95702.91
2023-04-29T02:39:27.847Z,95697.25
2023-04-29T02:42:00.594Z,95708.09
2023-04-29T02:44:32.667Z,95695.78
2023-04-29T02:46:59.545Z,95690.91
2023-04-29T02:49:34.217Z,95698.84
2023-04-29T02:52:09.138Z,95703.88
2023-04-29T02:54:39.411Z,95706.97
2023-04-29T02:57:11.276Z,95699.63
2023-04-29T02:59:44.411Z,95704.16
2023-04-29T03:02:11.320Z,95699.78
2023-04-29T03:04:49.616Z,95706.31
2023-04-29T03:07:17.537Z,95705.66
2023-04-29T03:09:49.160Z,95709.31
2023-04-29T03:12:17.013Z,95707.19
2023-04-29T03:28:52.990Z,95705.94
2023-04-29T03:31:23.577Z,95711.72
2023-04-29T03:33:51.209Z,95706.72
2023-04-29T03:36:22.329Z,95698.13
2023-04-29T03:39:08.106Z,95697.50
2023-04-29T03:41:35.027Z,95696.69
2023-04-29T03:44:01.988Z,95704.06
2023-04-29T03:46:31.336Z,95701.81
2023-04-29T03:48:58.451Z,95706.88
2023-04-29T03:51:26.155Z,95704.00
2023-04-29T03:54:02.287Z,95699.03
2023-04-29T03:56:31.666Z,95704.13
2023-04-29T03:59:00.892Z,95702.47
2023-04-29T04:01:33.640Z,95711.25
2023-04-29T04:04:02.994Z,95715.53
2023-04-29T04:06:33.802Z,95719.19
2023-04-29T04:09:00.703Z,95715.66
2023-04-29T04:11:30.268Z,95697.94
2023-04-29T04:14:02.963Z,95711.88
2023-04-29T04:16:30.493Z,95716.97
2023-04-29T04:19:02.461Z,95721.31
2023-04-29T04:21:31.863Z,95719.84
2023-04-29T04:24:04.974Z,95722.06
2023-04-29T04:26:31.813Z,95729.75
2023-04-29T04:29:07.346Z,95724.03
2023-04-29T04:31:47.536Z,95734.03
2023-04-29T04:34:21.161Z,95728.91
2023-04-29T04:36:50.438Z,95720.31
2023-04-29T04:39:17.483Z,95755.59
2023-04-29T04:41:47.146Z,95741.97
2023-04-29T04:44:14.553Z,95739.94
2023-04-29T04:46:58.647Z,95734.28
2023-04-29T04:49:50.083Z,95732.13
2023-04-29T04:52:19.780Z,95736.94
2023-04-29T04:54:54.793Z,95737.22
2023-04-29T04:57:27.016Z,95737.91
2023-04-29T04:59:55.920Z,95734.22
2023-04-29T05:02:22.974Z,95735.84
2023-04-29T05:04:52.442Z,95740.31
2023-04-29T05:07:23.225Z,95755.50
2023-04-29T05:10:00.210Z,95740.47
2023-04-29T05:12:31.404Z,95759.88
2023-04-29T05:15:01.929Z,95747.78
2023-04-29T05:17:32.063Z,95754.84
2023-04-29T05:20:04.180Z,95744.19
2023-04-29T05:22:37.440Z,95757.97
2023-04-29T05:25:07.998Z,95750.03
2023-04-29T05:27:36.292Z,95758.69
2023-04-29T05:30:09.208Z,95753.78
2023-04-29T05:32:39.467Z,95753.16
2023-04-29T05:35:12.752Z,95762.72
2023-04-29T05:37:39.647Z,95765.56
2023-04-29T05:40:19.276Z,95782.97
2023-04-29T05:42:47.302Z,95776.72
2023-04-29T05:45:14.196Z,95783.97
2023-04-29T05:47:41.194Z,95777.56
2023-04-29T05:50:08.719Z,95781.31
2023-04-29T05:52:37.796Z,95788.50
2023-04-29T05:55:04.900Z,95789.34
2023-04-29T05:57:34.284Z,95796.78
2023-04-29T06:00:07.325Z,95791.13
2023-04-29T06:02:54.975Z,95793.97
2023-04-29T06:05:31.778Z,95800.63
2023-04-29T06:08:16.836Z,95809.84
2023-04-29T06:10:55.205Z,95801.59
2023-04-29T06:13:22.043Z,95807.44
2023-04-29T06:15:54.496Z,95813.06
2023-04-29T06:18:21.856Z,95818.91
2023-04-29T06:20:53.531Z,95818.16
2023-04-29T06:23:25.292Z,95818.84
2023-04-29T06:25:57.845Z,95821.78
2023-04-29T06:28:24.776Z,95836.25
2023-04-29T06:30:54.089Z,95832.50
2023-04-29T06:33:23.327Z,95834.84
2023-04-29T06:35:55.754Z,95836.31
2023-04-29T06:38:44.886Z,95850.00
2023-04-29T06:41:28.392Z,95835.66
2023-04-29T06:43:55.141Z,95835.09
2023-04-29T06:46:52.322Z,95843.84
2023-04-29T06:49:26.797Z,95836.50
2023-04-29T06:51:54.267Z,95829.56
2023-04-29T06:54:23.480Z,95826.63
2023-04-29T06:56:50.547Z,95832.44
2023-04-29T06:59:22.804Z,95836.97
2023-04-29T07:01:50.071Z,95834.16
2023-04-29T07:04:22.256Z,95834.28
2023-04-29T07:06:54.517Z,95837.31
2023-04-29T07:09:29.677Z,95841.69
2023-04-29T07:11:59.060Z,95836.75
2023-04-29T07:14:28.478Z,95839.00
2023-04-29T07:16:59.994Z,95845.66
2023-04-29T07:19:31.003Z,95845.06
2023-04-29T07:21:58.448Z,95845.91
2023-04-29T07:24:25.566Z,95848.16
2023-04-29T07:26:54.606Z,95841.03
2023-04-29T07:29:23.709Z,95838.09
2023-04-29T07:31:50.642Z,95849.16
2023-04-29T07:34:21.745Z,95837.13
2023-04-29T07:36:50.941Z,95855.19
2023-04-29T07:39:20.191Z,95838.75
2023-04-29T07:41:57.210Z,95825.41
2023-04-29T07:44:31.596Z,95838.94
2023-04-29T07:47:03.584Z,95839.75
2023-04-29T07:49:33.395Z,95851.41
2023-04-29T07:52:05.437Z,95828.03
2023-04-29T07:54:33.143Z,95843.72
2023-04-29T07:57:05.102Z,95832.22
2023-04-29T07:59:36.743Z,95847.53
2023-04-29T08:02:03.581Z,95845.41
2023-04-29T08:04:33.001Z,95844.13
2023-04-29T08:07:10.880Z,95852.09
2023-04-29T08:09:39.949Z,95855.91
2023-04-29T08:12:14.700Z,95853.19
2023-04-29T08:14:41.546Z,95848.97
2023-04-29T08:17:13.025Z,95846.16
2023-04-29T08:19:39.853Z,95849.13
2023-04-29T08:22:12.401Z,95836.94
2023-04-29T08:24:45.317Z,95842.78
2023-04-29T08:27:16.977Z,95836.47
2023-04-29T08:29:48.540Z,95850.91
2023-04-29T08:32:17.816Z,95849.66
2023-04-29T08:34:44.854Z,95842.59
2023-04-29T08:37:17.671Z,95848.47
2023-04-29T08:39:48.178Z,95841.28
2023-04-29T08:42:34.874Z,95848.06
2023-04-29T08:45:05.252Z,95844.53
2023-04-29T08:47:37.361Z,95841.72
2023-04-29T08:50:09.783Z,95844.69
2023-04-29T08:52:36.594Z,95846.91
2023-04-29T08:55:03.565Z,95836.22
2023-04-29T08:57:42.560Z,95844.28
2023-04-29T09:00:10.946Z,95836.25
2023-04-29T09:02:46.374Z,95852.34
2023-04-29T09:05:13.316Z,95845.13
2023-04-29T09:07:41.699Z,95848.16
2023-04-29T09:10:09.528Z,95850.97
2023-04-29T09:12:43.452Z,95846.69
2023-04-29T09:15:15.222Z,95840.94
2023-04-29T09:17:50.639Z,95846.03
2023-04-29T09:20:20.200Z,95848.97
2023-04-29T09:23:07.450Z,95829.56
2023-04-29T09:25:36.756Z,95823.81
2023-04-29T09:28:17.058Z,95825.41
2023-04-29T09:30:50.851Z,95813.97
2023-04-29T09:33:20.217Z,95812.53
2023-04-29T09:35:49.817Z,95821.53
2023-04-29T09:38:19.517Z,95825.25
2023-04-29T09:40:59.474Z,95829.72
2023-04-29T09:43:27.067Z,95816.81
2023-04-29T09:46:00.830Z,95824.16
2023-04-29T09:48:34.393Z,95822.81
2023-04-29T09:51:09.776Z,95825.84
2023-04-29T09:53:39.269Z,95828.13
2023-04-29T09:56:11.928Z,95818.97
2023-04-29T09:58:41.551Z,95824.09
2023-04-29T10:01:09.138Z,95830.81
2023-04-29T10:03:39.393Z,95828.72
2023-04-29T10:06:09.229Z,95846.81
2023-04-29T10:08:41.602Z,95838.84
2023-04-29T10:11:13.616Z,95839.59
2023-04-29T10:13:44.498Z,95839.53
2023-04-29T10:16:40.143Z,95839.50
2023-04-29T10:19:16.205Z,95835.88
2023-04-29T10:21:45.551Z,95835.78
2023-04-29T10:24:17.216Z,95836.66
2023-04-29T10:26:51.098Z,95841.03
2023-04-29T10:29:25.496Z,95846.94
2023-04-29T10:31:53.884Z,95837.59
2023-04-29T10:34:26.717Z,95839.94
2023-04-29T10:37:01.838Z,95824.09
2023-04-29T10:39:44.305Z,95837.94
2023-04-29T10:42:43.505Z,95825.84
2023-04-29T10:45:21.229Z,95828.28
2023-04-29T10:48:03.358Z,95827.69
2023-04-29T10:51:04.297Z,95823.50
2023-04-29T10:53:31.850Z,95822.81
2023-04-29T10:56:03.939Z,95831.66
2023-04-29T10:58:44.584Z,95827.31
2023-04-29T11:01:18.165Z,95830.97
2023-04-29T11:03:49.203Z,95822.41
2023-04-29T11:06:20.744Z,95812.34
2023-04-29T11:09:03.130Z,95807.34
2023-04-29T11:11:49.073Z,95817.63
2023-04-29T11:14:24.718Z,95828.56
2023-04-29T11:16:56.852Z,95822.16
2023-04-29T11:19:31.402Z,95811.44
2023-04-29T11:22:19.305Z,95820.22
2023-04-29T11:25:11.900Z,95819.47
2023-04-29T11:27:49.279Z,95817.34
2023-04-29T11:30:21.363Z,95822.50
2023-04-29T11:32:51.275Z,95819.00
2023-04-29T11:35:21.484Z,95821.28
2023-04-29T11:37:48.362Z,95825.75
2023-04-29T11:40:18.185Z,95820.00
2023-04-29T11:42:52.990Z,95833.91
2023-04-29T11:45:22.336Z,95833.34
2023-04-29T11:47:49.809Z,95825.53
2023-04-29T11:50:20.682Z,95824.19
2023-04-29T11:52:50.974Z,95820.53
2023-04-29T11:55:21.120Z,95832.22
2023-04-29T11:57:52.484Z,95815.63
2023-04-29T12:00:27.344Z,95835.94
2023-04-29T12:02:59.158Z,95832.34
2023-04-29T12:05:29.643Z,95829.47
2023-04-29T12:07:56.753Z,95826.66
2023-04-29T12:10:23.554Z,95825.97
2023-04-29T12:13:03.652Z,95829.66
2023-04-29T12:15:37.375Z,95823.84
2023-04-29T12:18:05.559Z,95835.53
2023-04-29T12:20:34.980Z,95837.66
2023-04-29T12:23:19.049Z,95839.88
2023-04-29T12:25:55.753Z,95835.47
2023-04-29T12:28:28.417Z,95836.94
2023-04-29T12:30:59.447Z,95839.75
2023-04-29T12:33:30.171Z,95832.56
2023-04-29T12:36:02.227Z,95835.44
2023-04-29T12:38:35.113Z,95833.97
2023-04-29T12:41:07.672Z,95839.09
2023-04-29T12:43:40.001Z,95836.28
2023-04-29T12:46:12.866Z,95831.88
2023-04-29T12:48:46.434Z,95844.97
2023-04-29T12:51:21.092Z,95839.91
2023-04-29T12:53:58.132Z,95831.28
2023-04-29T12:56:31.473Z,95827.75
2023-04-29T12:59:07.939Z,95837.94
2023-04-29T13:01:37.666Z,95845.22
2023-04-29T13:04:09.476Z,95835.09
2023-04-29T13:06:42.014Z,95838.78
2023-04-29T13:09:18.231Z,95840.25
2023-04-29T13:11:48.288Z,95838.78
2023-04-29T13:14:22.674Z,95838.81
2023-04-29T13:16:49.923Z,95838.09
2023-04-29T13:19:36.404Z,95838.09
2023-04-29T13:22:10.386Z,95843.16
2023-04-29T13:24:39.413Z,95848.91
2023-04-29T13:27:08.448Z,95844.56
2023-04-29T13:29:37.420Z,95846.00
2023-04-29T13:32:06.878Z,95830.03
2023-04-29T13:34:43.447Z,95838.72
2023-04-29T13:37:17.500Z,95833.66
2023-04-29T13:39:47.914Z,95844.53
2023-04-29T13:42:15.805Z,95840.22
2023-04-29T13:44:52.800Z,95837.31
2023-04-29T13:47:26.177Z,95830.09
2023-04-29T13:50:16.874Z,95838.06
2023-04-29T13:58:40.259Z,95846.81
2023-04-29T14:03:15.210Z,95843.84
2023-04-29T14:05:47.606Z,95846.03
2023-04-29T14:08:16.907Z,95809.63
2023-04-29T14:10:43.712Z,95845.97
2023-04-29T14:13:15.072Z,95845.88
2023-04-29T14:15:44.362Z,95845.81
2023-04-29T14:18:13.766Z,95852.34
2023-04-29T14:20:41.264Z,95855.16
2023-04-29T14:23:10.926Z,95826.06
2023-04-29T14:25:43.416Z,95848.56
2023-04-29T14:28:10.179Z,95854.31
2023-04-29T14:30:39.280Z,95852.06
2023-04-29T14:33:08.474Z,95857.03
2023-04-29T14:35:37.604Z,95863.47
2023-04-29T14:38:09.276Z,95858.31
2023-04-29T14:40:39.382Z,95864.06
2023-04-29T14:43:08.438Z,95866.91
2023-04-29T14:45:40.887Z,95877.72
2023-04-29T14:48:13.499Z,95880.56
2023-04-29T14:50:42.579Z,95869.00
2023-04-29T14:53:12.784Z,95859.53
2023-04-29T14:55:47.605Z,95882.69
2023-04-29T14:58:18.786Z,95884.81
2023-04-29T15:00:51.230Z,95882.59
2023-04-29T15:03:23.211Z,95883.31
2023-04-29T15:05:51.766Z,95884.78
2023-04-29T15:08:24.035Z,95894.88
2023-04-29T15:10:51.216Z,95882.53
2023-04-29T15:13:23.392Z,95888.28
2023-04-29T15:15:50.279Z,95886.09
2023-04-29T15:18:17.114Z,95873.00
2023-04-29T15:20:48.903Z,95888.22
2023-04-29T15:23:22.804Z,95890.44
2023-04-29T15:25:53.407Z,95891.78
2023-04-29T15:28:20.200Z,95891.06
2023-04-29T15:30:47.356Z,95895.38
2023-04-29T15:33:16.563Z,95898.97
2023-04-29T15:35:48.320Z,95912.00
2023-04-29T15:38:18.523Z,95916.31
2023-04-29T15:40:50.148Z,95914.06
2023-04-29T15:43:17.007Z,95912.63
2023-04-29T15:45:46.188Z,95908.22
2023-04-29T15:48:13.242Z,95927.03
2023-04-29T15:50:43.116Z,95908.13
2023-04-29T15:53:09.940Z,95925.59
2023-04-29T15:55:36.755Z,95924.84
2023-04-29T15:58:08.377Z,95921.94
2023-04-29T16:00:38.928Z,95923.25
2023-04-29T16:03:10.381Z,95926.78
2023-04-29T16:05:39.385Z,95933.88
2023-04-29T16:08:08.768Z,95938.94
2023-04-29T16:10:37.977Z,95948.97
2023-04-29T16:13:07.331Z,95936.53
2023-04-29T16:15:36.959Z,95948.78
2023-04-29T16:18:03.979Z,95936.38
2023-04-29T16:20:30.753Z,95930.34
2023-04-29T16:22:57.582Z,95950.75
2023-04-29T16:25:26.623Z,95946.31
2023-04-29T16:27:53.929Z,95957.81
2023-04-29T16:30:23.189Z,95961.91
2023-04-29T16:32:54.574Z,95959.09
2023-04-29T16:35:26.600Z,95960.38
2023-04-29T16:37:53.683Z,95959.63
2023-04-29T16:40:25.324Z,95971.81
2023-04-29T16:42:53.622Z,95958.72
2023-04-29T16:45:23.603Z,95968.06
2023-04-29T16:47:53.358Z,95972.38
2023-04-29T16:50:22.787Z,95974.50
2023-04-29T16:52:49.553Z,95967.88
2023-04-29T16:55:16.449Z,95977.88
2023-04-29T16:57:43.905Z,95980.75
2023-04-29T17:00:13.557Z,95981.38
2023-04-29T17:02:40.692Z,95981.91
2023-04-29T17:05:11.157Z,95990.56
2023-04-29T17:07:43.477Z,95990.47
2023-04-29T17:10:15.056Z,95996.25
2023-04-29T17:12:41.873Z,96001.22
2023-04-29T17:15:13.744Z,96006.13
2023-04-29T17:17:47.675Z,95995.75
2023-04-29T17:20:24.382Z,96008.03
2023-04-29T17:22:53.759Z,96010.78
2023-04-29T17:25:22.609Z,96011.34
2023-04-29T17:27:54.540Z,96008.91
2023-04-29T17:30:26.962Z,96018.34
2023-04-29T17:32:53.838Z,96017.44
2023-04-29T17:35:27.701Z,96016.59
2023-04-29T17:37:54.625Z,72854.09
2023-04-29T17:40:24.399Z,72854.09
2023-04-29T17:42:54.411Z,72854.09
2023-04-29T17:45:26.455Z,72854.09
2023-04-29T17:47:57.799Z,72854.09
2023-04-29T17:50:27.083Z,72854.09
2023-04-29T17:52:56.868Z,72854.09
2023-04-29T17:55:23.912Z,72854.09
2023-04-29T17:57:50.783Z,72854.09
2023-04-29T18:00:18.512Z,72854.09
2023-04-29T18:02:47.724Z,72854.09
2023-04-29T18:05:14.690Z,72854.09
2023-04-29T18:07:46.298Z,72854.09
2023-04-29T18:10:15.532Z,72854.09
2023-04-29T18:12:42.415Z,72854.09
2023-04-29T18:15:16.838Z,72854.09
2023-04-29T18:17:44.251Z,72854.09
2023-04-29T18:20:14.454Z,72854.09
2023-04-29T18:22:44.423Z,72854.09
2023-04-29T18:25:13.463Z,72854.09
2023-04-29T18:27:42.700Z,72854.09
2023-04-29T18:30:15.080Z,72854.09
2023-04-29T18:32:42.083Z,72854.09
2023-04-29T18:35:12.409Z,72854.09
2023-04-29T18:37:42.160Z,72854.09
2023-04-29T18:40:09.502Z,72854.09
2023-04-29T18:42:36.302Z,72854.09
2023-04-29T18:45:04.662Z,72854.09
2023-04-29T18:47:44.301Z,72854.09
2023-04-29T18:50:14.221Z,72854.09
2023-04-29T18:52:42.098Z,72854.09
2023-04-29T18:55:13.947Z,72854.09
2023-04-29T18:57:43.658Z,72854.09
2023-04-29T19:00:22.013Z,72854.09
2023-04-29T19:02:51.442Z,72854.09
2023-04-29T19:05:18.494Z,72854.09
2023-04-29T19:07:45.958Z,72854.09
2023-04-29T19:10:17.567Z,72854.09
2023-04-29T19:12:46.620Z,72854.09
2023-04-29T19:15:13.688Z,72854.09
2023-04-29T19:17:42.926Z,72854.09
2023-04-29T19:20:15.516Z,72854.09
2023-04-29T19:22:44.798Z,72854.09
2023-04-29T19:25:13.942Z,72854.09
2023-04-29T19:27:45.370Z,72854.09
2023-04-29T19:30:13.221Z,72854.09
2023-04-29T19:32:42.548Z,72854.09
2023-04-29T19:35:09.647Z,72854.09
2023-04-29T19:37:36.405Z,72854.09
2023-04-29T19:40:04.197Z,72854.09
2023-04-29T19:42:31.080Z,72854.09
2023-04-29T19:45:05.258Z,72854.09
2023-04-29T19:47:32.262Z,72854.09
2023-04-29T19:50:03.890Z,72854.09
2023-04-29T19:52:32.977Z,72854.09
2023-04-29T19:55:02.161Z,72854.09
2023-04-29T19:57:35.526Z,96138.84
2023-04-29T20:00:06.245Z,96126.25
2023-04-29T20:02:33.603Z,72854.09
2023-04-29T20:05:00.656Z,72854.09
2023-04-29T20:07:29.695Z,72854.09
2023-04-29T20:09:59.030Z,72854.09
2023-04-29T20:12:28.301Z,72854.09
2023-04-29T20:14:57.967Z,72854.09
2023-04-29T20:17:25.645Z,72854.09
2023-04-29T20:19:55.133Z,72854.09
2023-04-29T20:22:24.447Z,72854.09
2023-04-29T20:24:53.720Z,72854.09
2023-04-29T20:27:27.968Z,72854.09
2023-04-29T20:29:55.104Z,72854.09
2023-04-29T20:32:24.456Z,72854.09
2023-04-29T20:34:53.972Z,72854.09
2023-04-29T20:37:23.339Z,72854.09
2023-04-29T20:39:55.213Z,72854.09
2023-04-29T20:42:27.248Z,72854.09
2023-04-29T20:44:57.075Z,72854.09
2023-04-29T20:47:29.212Z,72854.09
2023-04-29T20:50:00.758Z,72854.09
2023-04-29T20:52:36.726Z,96162.25
2023-04-29T20:55:04.034Z,96162.13
2023-04-29T20:57:32.734Z,72854.09
2023-04-29T21:00:02.145Z,72854.09
2023-04-29T21:02:28.931Z,72854.09
2023-04-29T21:04:58.040Z,72854.09
2023-04-29T21:07:27.272Z,72854.09
2023-04-29T21:09:56.619Z,72854.09
2023-04-29T21:12:26.056Z,72854.09
2023-04-29T21:14:52.878Z,72854.09
2023-04-29T21:17:22.570Z,72854.09
2023-04-29T21:19:54.092Z,72854.09
2023-04-29T21:22:25.690Z,72854.09
2023-04-29T21:24:54.858Z,72854.09
2023-04-29T21:27:26.757Z,72854.09
2023-04-29T21:29:56.099Z,72854.09
2023-04-29T21:32:25.828Z,72854.09
2023-04-29T21:34:52.721Z,72854.09
2023-04-29T21:37:19.532Z,72854.09
2023-04-29T21:39:48.635Z,72854.09
2023-04-29T21:42:21.433Z,72854.09
2023-04-29T21:44:53.790Z,72854.09
2023-04-29T21:47:21.311Z,96185.66
2023-04-29T21:49:48.235Z,96196.56
2023-04-29T21:52:17.520Z,96198.66
2023-04-29T21:54:47.204Z,96193.41
2023-04-29T21:57:16.358Z,96198.47
2023-04-29T21:59:43.257Z,96208.47
2023-04-29T22:02:22.307Z,96206.94
2023-04-29T22:04:52.788Z,96200.41
2023-04-29T22:07:26.365Z,96189.19
2023-04-29T22:09:55.909Z,96190.59
2023-04-29T22:12:22.953Z,96182.50
2023-04-29T22:14:52.207Z,96200.72
2023-04-29T22:17:19.072Z,96201.19
2023-04-29T22:19:45.866Z,96200.50
2023-04-29T22:22:15.114Z,96208.38
2023-04-29T22:24:44.409Z,96202.56
2023-04-29T22:27:16.050Z,96199.59
2023-04-29T22:29:47.435Z,96205.78
2023-04-29T22:32:14.354Z,96209.44
2023-04-29T22:34:43.475Z,96201.53
2023-04-29T22:37:12.337Z,96199.38
2023-04-29T22:39:41.750Z,96196.34
2023-04-29T22:42:13.529Z,96207.09
2023-04-29T22:44:45.456Z,96202.91
2023-04-29T22:47:15.363Z,96201.19
2023-04-29T22:49:45.335Z,96205.03
2023-04-29T22:52:14.416Z,96201.91
2023-04-29T22:54:41.233Z,96217.25
2023-04-29T22:57:10.401Z,96214.94
2023-04-29T22:59:50.074Z,96210.50
2023-04-29T23:02:16.860Z,96217.06
2023-04-29T23:04:46.008Z,96204.84
2023-04-29T23:07:15.211Z,96201.19
2023-04-29T23:09:44.295Z,96204.84
2023-04-29T23:12:18.906Z,96202.66
2023-04-29T23:14:46.136Z,96198.22
2023-04-29T23:17:17.559Z,96197.41
2023-04-29T23:19:49.110Z,96208.22
2023-04-29T23:22:18.242Z,96206.75
2023-04-29T23:24:49.581Z,96198.66
2023-04-29T23:27:16.439Z,96199.41
2023-04-29T23:29:52.800Z,96205.22
2023-04-29T23:32:22.351Z,96199.47
2023-04-29T23:34:51.384Z,96202.25
2023-04-29T23:37:20.582Z,96205.84
2023-04-29T23:39:52.151Z,96205.69
2023-04-29T23:42:19.117Z,96189.13
2023-04-29T23:44:48.520Z,96195.53
2023-04-29T23:47:21.435Z,96199.72
2023-04-29T23:49:53.340Z,96191.28
2023-04-29T23:52:25.192Z,96192.00
2023-04-29T23:54:57.374Z,96183.25
2023-04-29T23:57:24.182Z,96187.66
2023-04-29T23:59:53.385Z,96187.59
